Valentine, Indiana
Current Conditions -  °F | °C
As of 12:55 PM on Saturday 20 Dec 2014 (Local Time) from KIRS Reporting Station
Haze Haze  
Wind Chill: 28°   Ceiling: 2900
Heat Index: 28°   Visibility: 5mi
Dew Point: 25°   Wind: 0mph
Humidity: 86%   Direction: NA
Pressure: 30.25"   Gusts: NA
Location:  41.6561°N, 85.3683°W
Report Text: KIRS 201755Z AUTO 00000KT 5SM BR OVC029 M02/M04 A3025 RMK AO2
Loading
Personal Weather Stations






























Interactive Weather Map New forecast layout! Learn more

10-Day Weather Forecast

Advertisements
Track Severe Weather on mobile